createdAt,value
2018-10-19T00:02:11.751Z,14.77
2018-10-19T00:08:15.500Z,12.53
2018-10-19T00:14:19.292Z,15.10
2018-10-19T00:20:27.163Z,14.77
2018-10-19T00:26:30.887Z,12.90
2018-10-19T00:32:34.452Z,14.50
2018-10-19T00:38:38.054Z,15.90
2018-10-19T00:44:41.724Z,16.77
2018-10-19T00:50:45.684Z,16.17
2018-10-19T00:56:49.056Z,15.67
2018-10-19T01:02:52.717Z,15.70
2018-10-19T01:08:56.436Z,17.23
2018-10-19T01:14:59.930Z,17.33
2018-10-19T01:21:03.698Z,17.30
2018-10-19T01:27:07.570Z,17.37
2018-10-19T01:33:11.045Z,15.70
2018-10-19T01:39:14.690Z,18.73
2018-10-19T01:45:18.434Z,21.97
2018-10-19T01:51:23.114Z,21.60
2018-10-19T01:57:26.589Z,20.77
2018-10-19T02:03:31.075Z,19.67
2018-10-19T02:09:34.742Z,21.40
2018-10-19T02:15:38.486Z,23.23
2018-10-19T02:21:41.941Z,19.50
2018-10-19T02:27:46.134Z,23.67
2018-10-19T02:33:50.139Z,23.53
2018-10-19T02:39:53.599Z,24.60
2018-10-19T02:45:57.655Z,20.53
2018-10-19T02:52:01.170Z,19.80
2018-10-19T02:58:04.675Z,18.90
2018-10-19T03:04:08.447Z,22.93
2018-10-19T03:10:11.827Z,21.10
2018-10-19T03:16:17.537Z,22.70
2018-10-19T03:22:22.270Z,24.73
2018-10-19T03:28:25.799Z,21.13
2018-10-19T03:34:29.382Z,22.73
2018-10-19T03:40:33.090Z,20.07
2018-10-19T03:46:36.538Z,19.27
2018-10-19T03:52:40.102Z,21.70
2018-10-19T03:58:43.523Z,21.73
2018-10-19T04:04:47.343Z,20.53
2018-10-19T04:10:51.123Z,24.10
2018-10-19T04:16:54.879Z,19.87
2018-10-19T04:23:07.610Z,19.77
2018-10-19T04:29:11.337Z,21.20
2018-10-19T04:35:15.017Z,20.77
2018-10-19T04:41:18.823Z,20.60
2018-10-19T04:47:22.213Z,21.53
2018-10-19T04:53:25.999Z,22.03
2018-10-19T04:59:29.583Z,22.77
2018-10-19T05:05:33.753Z,22.90
2018-10-19T05:11:37.678Z,20.97
2018-10-19T05:17:41.509Z,22.27
2018-10-19T05:23:45.330Z,23.17
2018-10-19T05:29:48.775Z,24.67
2018-10-19T05:35:52.589Z,21.50
2018-10-19T05:41:56.048Z,26.80
2018-10-19T05:47:59.513Z,25.23
2018-10-19T05:54:02.988Z,28.60
2018-10-19T06:00:09.036Z,34.63
2018-10-19T06:06:12.791Z,39.00
2018-10-19T06:12:16.941Z,37.80
2018-10-19T06:18:20.731Z,38.30
2018-10-19T06:24:24.741Z,39.53
2018-10-19T06:30:28.199Z,37.97
2018-10-19T06:36:31.648Z,35.47
2018-10-19T06:42:35.530Z,35.10
2018-10-19T06:48:39.084Z,41.50
2018-10-19T06:54:43.338Z,39.07
2018-10-19T07:00:46.825Z,38.63
2018-10-19T07:06:50.531Z,37.47
2018-10-19T07:12:54.348Z,34.13
2018-10-19T07:18:59.856Z,32.60
2018-10-19T07:25:03.682Z,33.57
2018-10-19T07:31:07.364Z,36.70
2018-10-19T07:37:10.948Z,33.13
2018-10-19T07:43:14.554Z,40.13
2018-10-19T07:49:18.738Z,34.90
2018-10-19T07:55:23.141Z,30.43
2018-10-19T08:01:26.728Z,28.50
2018-10-19T08:07:30.074Z,27.93
2018-10-19T08:13:34.016Z,29.73
2018-10-19T08:19:38.699Z,31.40
2018-10-19T08:25:42.803Z,30.27
2018-10-19T08:31:46.450Z,30.30
2018-10-19T08:37:50.436Z,30.30
2018-10-19T08:43:54.055Z,28.77
2018-10-19T08:49:58.537Z,30.20
2018-10-19T08:56:02.227Z,29.37
2018-10-19T09:02:06.677Z,30.33
2018-10-19T09:08:10.256Z,31.73
2018-10-19T09:14:31.000Z,33.33
2018-10-19T09:20:34.541Z,57.37
2018-10-19T09:26:38.384Z,57.37
2018-10-19T09:32:43.226Z,33.43
2018-10-19T09:38:46.744Z,31.90
2018-10-19T09:44:50.194Z,31.70
2018-10-19T09:50:53.700Z,32.20
2018-10-19T09:56:57.473Z,29.57
2018-10-19T10:03:01.875Z,30.03
2018-10-19T10:09:11.001Z,28.87
2018-10-19T10:15:14.881Z,31.40
2018-10-19T10:21:18.386Z,26.20
2018-10-19T10:27:21.901Z,26.57
2018-10-19T10:33:25.897Z,27.37
2018-10-19T10:39:29.507Z,25.60
2018-10-19T10:45:32.999Z,26.00
2018-10-19T10:51:37.829Z,29.00
2018-10-19T10:57:41.587Z,27.53
2018-10-19T11:03:44.957Z,24.63
2018-10-19T11:09:48.485Z,24.00
2018-10-19T11:15:52.573Z,26.43
2018-10-19T11:21:56.186Z,27.07
2018-10-19T11:27:59.831Z,23.77
2018-10-19T11:34:03.232Z,26.23
2018-10-19T11:40:28.286Z,27.33
2018-10-19T11:46:33.921Z,27.33
2018-10-19T11:52:37.399Z,27.47
2018-10-19T11:58:40.783Z,27.37
2018-10-19T12:04:44.300Z,26.50
2018-10-19T12:10:47.803Z,27.77
2018-10-19T12:16:51.927Z,32.30
2018-10-19T12:22:55.249Z,31.00
2018-10-19T12:28:59.392Z,30.80
2018-10-19T12:35:02.804Z,31.43
2018-10-19T12:41:06.355Z,29.30
2018-10-19T12:47:42.770Z,30.53
2018-10-19T12:53:47.676Z,28.60
2018-10-19T12:59:51.292Z,30.57
2018-10-19T13:05:54.648Z,32.73
2018-10-19T13:11:59.099Z,33.53
2018-10-19T13:18:02.501Z,34.57
2018-10-19T13:24:06.008Z,32.07
2018-10-19T13:30:09.477Z,31.70
2018-10-19T13:36:12.843Z,31.30
2018-10-19T13:42:16.111Z,32.13
2018-10-19T13:48:21.091Z,32.40
2018-10-19T13:54:24.650Z,31.57
2018-10-19T14:00:28.308Z,34.67
2018-10-19T14:06:31.608Z,37.03
2018-10-19T14:12:35.392Z,34.47
2018-10-19T14:18:38.786Z,33.60
2018-10-19T14:24:42.968Z,31.27
2018-10-19T14:30:46.354Z,33.67
2018-10-19T14:36:49.910Z,33.83
2018-10-19T14:42:53.237Z,34.47
2018-10-19T14:48:56.734Z,31.97
2018-10-19T14:55:00.163Z,31.57
2018-10-19T15:01:04.311Z,36.47
2018-10-19T15:07:07.851Z,35.87
2018-10-19T15:13:11.306Z,36.97
2018-10-19T15:19:14.673Z,37.63
2018-10-19T15:25:17.986Z,46.23
2018-10-19T15:31:21.294Z,50.30
2018-10-19T15:37:25.162Z,69.50
2018-10-19T15:43:28.494Z,66.17
2018-10-19T15:49:32.025Z,70.63
2018-10-19T15:55:35.818Z,69.20
2018-10-19T16:01:39.116Z,68.10
2018-10-19T16:07:43.943Z,68.07
2018-10-19T16:13:47.555Z,57.17
2018-10-19T16:19:50.897Z,54.67
2018-10-19T16:25:54.438Z,49.90
2018-10-19T16:31:57.930Z,50.83
2018-10-19T16:38:01.327Z,49.30
2018-10-19T16:44:06.468Z,48.47
2018-10-19T16:50:09.830Z,44.27
2018-10-19T16:56:13.265Z,45.60
2018-10-19T17:02:17.628Z,47.07
2018-10-19T17:08:20.978Z,48.10
2018-10-19T17:14:24.349Z,44.90
2018-10-19T17:20:34.279Z,41.33
2018-10-19T17:26:37.929Z,42.30
2018-10-19T17:32:41.432Z,39.60
2018-10-19T17:38:44.670Z,38.43
2018-10-19T17:44:49.383Z,40.30
2018-10-19T17:50:52.884Z,38.10
2018-10-19T17:56:56.416Z,37.90
2018-10-19T18:03:00.206Z,37.83
2018-10-19T18:09:06.751Z,36.63
2018-10-19T18:15:11.179Z,39.07
2018-10-19T18:21:14.539Z,37.83
2018-10-19T18:27:18.058Z,46.03
2018-10-19T18:33:21.482Z,36.53
2018-10-19T18:39:24.826Z,35.03
2018-10-19T18:45:28.167Z,30.83
2018-10-19T18:51:31.555Z,28.83
2018-10-19T18:57:34.958Z,26.37
2018-10-19T19:03:38.985Z,25.73
2018-10-19T19:09:49.268Z,26.80
2018-10-19T19:15:52.809Z,20.67
2018-10-19T19:21:56.217Z,21.07
2018-10-19T19:28:00.142Z,20.97
2018-10-19T19:34:09.130Z,21.67
2018-10-19T19:40:12.596Z,16.33
2018-10-19T19:46:15.967Z,19.20
2018-10-19T19:52:20.743Z,16.03
2018-10-19T19:58:24.653Z,13.60
2018-10-19T20:04:29.178Z,15.00
2018-10-19T20:10:33.198Z,14.77
2018-10-19T20:16:36.888Z,13.80
2018-10-19T20:22:41.262Z,17.37
2018-10-19T20:28:44.610Z,17.77
2018-10-19T20:34:47.966Z,16.80
2018-10-19T20:40:51.819Z,18.53
2018-10-19T20:46:55.179Z,15.23
2018-10-19T20:52:59.659Z,12.97
2018-10-19T20:59:03.149Z,13.63
2018-10-19T21:05:08.657Z,13.87
2018-10-19T21:11:12.833Z,15.30
2018-10-19T21:17:16.292Z,15.63
2018-10-19T21:23:20.476Z,12.77
2018-10-19T21:29:23.990Z,18.10
2018-10-19T21:35:30.833Z,13.17
2018-10-19T21:41:34.892Z,16.67
2018-10-19T21:47:38.370Z,20.37
2018-10-19T21:53:41.882Z,22.10
2018-10-19T21:59:46.807Z,15.77
2018-10-19T22:05:50.300Z,16.77
2018-10-19T22:11:54.065Z,16.27
2018-10-19T22:17:57.823Z,13.37
2018-10-19T22:24:02.015Z,17.37
2018-10-19T22:30:07.408Z,15.73
2018-10-19T22:36:10.757Z,15.63
2018-10-19T22:42:14.265Z,15.40
2018-10-19T22:48:17.693Z,15.53
2018-10-19T22:54:21.124Z,17.43
2018-10-19T23:00:24.861Z,17.73
2018-10-19T23:06:28.438Z,19.10
2018-10-19T23:12:32.547Z,16.17
2018-10-19T23:18:36.234Z,12.47
2018-10-19T23:24:39.561Z,15.40
2018-10-19T23:30:42.856Z,16.50
2018-10-19T23:36:46.342Z,15.60
2018-10-19T23:42:49.767Z,16.83
2018-10-19T23:48:53.126Z,14.97
2018-10-19T23:54:57.187Z,16.60
